createdAt,value
2023-03-19T00:00:05.959Z,78.35
2023-03-19T00:01:08.668Z,78.51
2023-03-19T00:02:17.425Z,78.87
2023-03-19T00:03:20.089Z,79.29
2023-03-19T00:04:22.587Z,78.49
2023-03-19T00:05:24.361Z,78.59
2023-03-19T00:06:26.845Z,78.29
2023-03-19T00:07:28.926Z,78.79
2023-03-19T00:08:30.978Z,78.72
2023-03-19T00:09:33.196Z,78.06
2023-03-19T00:10:38.922Z,79.18
2023-03-19T00:11:41.065Z,78.67
2023-03-19T00:12:43.060Z,78.00
2023-03-19T00:13:45.032Z,78.24
2023-03-19T00:14:47.106Z,78.88
2023-03-19T00:15:49.229Z,78.77
2023-03-19T00:16:51.902Z,79.17
2023-03-19T00:17:54.686Z,78.67
2023-03-19T00:18:57.634Z,79.30
2023-03-19T00:19:59.678Z,79.46
2023-03-19T00:21:01.849Z,79.44
2023-03-19T00:22:03.859Z,79.14
2023-03-19T00:23:06.663Z,79.54
2023-03-19T00:24:10.138Z,78.76
2023-03-19T00:25:12.173Z,78.53
2023-03-19T00:26:14.142Z,78.75
2023-03-19T00:27:16.151Z,79.11
2023-03-19T00:28:18.708Z,79.16
2023-03-19T00:29:21.278Z,78.58
2023-03-19T00:30:24.498Z,78.40
2023-03-19T00:31:28.470Z,78.96
2023-03-19T00:32:30.526Z,78.74
2023-03-19T00:33:33.132Z,79.27
2023-03-19T00:34:35.180Z,79.10
2023-03-19T00:35:39.524Z,79.49
2023-03-19T00:36:41.784Z,79.47
2023-03-19T00:37:44.258Z,79.89
2023-03-19T00:38:46.970Z,78.66
2023-03-19T00:39:49.364Z,79.47
2023-03-19T00:40:51.209Z,79.37
2023-03-19T00:41:53.910Z,78.96
2023-03-19T00:42:56.123Z,79.07
2023-03-19T00:43:59.033Z,79.33
2023-03-19T00:45:01.433Z,78.81
2023-03-19T00:46:03.824Z,78.92
2023-03-19T00:47:07.491Z,79.55
2023-03-19T00:48:09.529Z,79.72
2023-03-19T00:49:11.704Z,78.92
2023-03-19T00:50:13.701Z,79.21
2023-03-19T00:51:15.918Z,79.18
2023-03-19T00:52:17.885Z,78.56
2023-03-19T00:53:20.487Z,79.12
2023-03-19T00:54:22.492Z,79.43
2023-03-19T00:55:25.896Z,79.00
2023-03-19T00:56:27.953Z,79.43
2023-03-19T00:57:29.950Z,80.72
2023-03-19T00:58:31.945Z,79.35
2023-03-19T00:59:34.104Z,79.34
2023-03-19T01:00:37.352Z,79.57
2023-03-19T01:01:39.430Z,78.49
2023-03-19T01:02:41.905Z,78.97
2023-03-19T01:03:45.600Z,78.67
2023-03-19T01:04:51.304Z,79.27
2023-03-19T01:05:53.277Z,78.71
2023-03-19T01:06:55.768Z,78.66
2023-03-19T01:07:57.867Z,78.59
2023-03-19T01:08:59.865Z,78.15
2023-03-19T01:10:02.039Z,77.95
2023-03-19T01:11:12.715Z,77.37
2023-03-19T01:12:14.742Z,77.92
2023-03-19T01:13:16.882Z,77.46
2023-03-19T01:14:18.908Z,77.24
2023-03-19T01:16:22.487Z,76.21
2023-03-19T01:17:24.633Z,77.04
2023-03-19T01:18:27.289Z,76.65
2023-03-19T01:19:30.364Z,76.53
2023-03-19T01:20:33.122Z,76.06
2023-03-19T01:21:36.801Z,75.87
2023-03-19T01:22:41.685Z,75.29
2023-03-19T01:23:43.731Z,75.68
2023-03-19T01:24:46.249Z,75.55
2023-03-19T01:25:48.258Z,76.20
2023-03-19T01:26:50.232Z,75.80
2023-03-19T01:27:52.954Z,76.22
2023-03-19T01:28:55.008Z,77.54
2023-03-19T01:29:57.045Z,77.97
2023-03-19T01:31:01.181Z,78.01
2023-03-19T01:32:03.161Z,77.03
2023-03-19T01:33:05.121Z,77.61
2023-03-19T01:34:07.720Z,77.00
2023-03-19T01:35:10.165Z,76.91
2023-03-19T01:36:12.604Z,76.00
2023-03-19T01:37:14.682Z,75.93
2023-03-19T01:38:18.136Z,76.85
2023-03-19T01:39:20.092Z,77.09
2023-03-19T01:40:22.262Z,76.95
2023-03-19T01:41:24.752Z,76.46
2023-03-19T01:42:26.618Z,76.53
2023-03-19T01:43:31.094Z,76.50
2023-03-19T01:44:36.402Z,76.19
2023-03-19T01:45:41.672Z,76.49
2023-03-19T01:46:43.778Z,76.32
2023-03-19T01:47:46.208Z,75.75
2023-03-19T01:48:50.131Z,76.25
2023-03-19T01:49:57.137Z,77.39
2023-03-19T01:51:00.822Z,77.20
2023-03-19T01:52:05.349Z,76.86
2023-03-19T01:53:09.744Z,76.57
2023-03-19T01:54:17.177Z,76.72
2023-03-19T01:55:20.323Z,76.47
2023-03-19T01:56:27.257Z,76.24
2023-03-19T01:57:31.534Z,76.01
2023-03-19T01:58:33.702Z,75.82
2023-03-19T01:59:40.883Z,76.19
2023-03-19T02:00:43.368Z,74.71
2023-03-19T02:01:53.659Z,74.81
2023-03-19T02:03:00.598Z,75.41
2023-03-19T02:04:04.087Z,75.17
2023-03-19T02:05:12.421Z,75.16
2023-03-19T02:06:15.666Z,75.34
2023-03-19T02:07:18.008Z,76.33
2023-03-19T02:08:21.754Z,75.89
2023-03-19T02:09:24.606Z,76.02
2023-03-19T02:10:27.530Z,75.90
2023-03-19T02:11:29.748Z,75.78
2023-03-19T02:12:32.049Z,75.70
2023-03-19T02:13:35.267Z,75.90
2023-03-19T02:14:37.300Z,74.99
2023-03-19T02:15:39.693Z,75.06
2023-03-19T02:16:41.570Z,75.82
2023-03-19T02:17:44.069Z,75.51
2023-03-19T02:18:46.417Z,74.67
2023-03-19T02:19:48.721Z,75.07
2023-03-19T02:21:05.967Z,75.12
2023-03-19T02:22:10.156Z,76.04
2023-03-19T02:23:34.895Z,76.28
2023-03-19T02:24:45.028Z,76.71
2023-03-19T02:25:46.912Z,76.30
2023-03-19T02:26:50.799Z,76.64
2023-03-19T02:27:53.958Z,75.90
2023-03-19T02:28:56.041Z,76.03
2023-03-19T02:29:58.077Z,75.93
2023-03-19T02:31:00.629Z,76.08
2023-03-19T02:32:03.956Z,76.05
2023-03-19T02:33:06.419Z,75.51
2023-03-19T02:34:20.115Z,76.15
2023-03-19T02:35:22.180Z,75.79
2023-03-19T02:36:24.715Z,75.58
2023-03-19T02:37:33.369Z,75.38
2023-03-19T02:38:39.403Z,75.71
2023-03-19T02:39:47.487Z,75.20
2023-03-19T02:40:54.030Z,74.51
2023-03-19T02:41:58.510Z,75.35
2023-03-19T02:43:00.894Z,74.48
2023-03-19T02:44:04.546Z,75.27
2023-03-19T02:45:07.552Z,74.89
2023-03-19T02:46:13.518Z,74.56
2023-03-19T02:47:16.471Z,74.76
2023-03-19T02:48:18.605Z,75.51
2023-03-19T02:49:20.558Z,74.94
2023-03-19T02:50:22.541Z,75.51
2023-03-19T02:51:24.566Z,75.74
2023-03-19T02:52:26.803Z,75.57
2023-03-19T02:53:28.774Z,75.18
2023-03-19T02:54:30.966Z,75.34
2023-03-19T02:55:33.185Z,75.20
2023-03-19T02:56:35.718Z,76.13
2023-03-19T02:57:37.462Z,75.55
2023-03-19T02:58:39.459Z,75.73
2023-03-19T02:59:41.617Z,76.01
2023-03-19T03:00:43.719Z,75.77
2023-03-19T03:01:45.811Z,76.31
2023-03-19T03:02:47.795Z,76.10
2023-03-19T03:03:49.827Z,75.44
2023-03-19T03:04:52.321Z,76.06
2023-03-19T03:05:54.185Z,76.22
2023-03-19T03:06:56.231Z,76.21
2023-03-19T03:07:58.371Z,76.40
2023-03-19T03:09:01.172Z,76.05
2023-03-19T03:10:03.197Z,75.10
2023-03-19T03:11:05.490Z,74.39
2023-03-19T03:12:08.679Z,74.97
2023-03-19T03:13:10.866Z,74.25
2023-03-19T03:14:12.893Z,75.11
2023-03-19T03:15:14.958Z,75.34
2023-03-19T03:16:17.668Z,74.68
2023-03-19T03:17:20.419Z,74.57
2023-03-19T03:18:22.598Z,75.10
2023-03-19T03:19:24.941Z,74.78
2023-03-19T03:20:26.872Z,74.69
2023-03-19T03:21:29.820Z,74.74
2023-03-19T03:22:31.853Z,73.96
2023-03-19T03:23:33.934Z,73.34
2023-03-19T03:24:36.425Z,73.46
2023-03-19T03:25:38.219Z,74.01
2023-03-19T03:26:40.335Z,74.11
2023-03-19T03:27:42.744Z,75.51
2023-03-19T03:28:44.578Z,75.20
2023-03-19T03:29:46.617Z,75.36
2023-03-19T03:30:49.640Z,75.02
2023-03-19T03:31:52.273Z,74.86
2023-03-19T03:32:54.569Z,74.88
2023-03-19T03:33:56.688Z,74.36
2023-03-19T03:34:58.665Z,74.65
2023-03-19T03:36:00.781Z,74.28
2023-03-19T03:37:02.870Z,74.80
2023-03-19T03:38:04.976Z,74.95
2023-03-19T03:39:07.012Z,74.67
2023-03-19T03:40:09.826Z,74.22
2023-03-19T03:41:11.779Z,75.12
2023-03-19T03:42:13.858Z,75.23
2023-03-19T03:43:16.019Z,75.29
2023-03-19T03:44:18.566Z,74.53
2023-03-19T03:45:21.089Z,75.40
2023-03-19T03:46:24.046Z,74.75
2023-03-19T03:47:26.140Z,75.06
2023-03-19T03:48:28.776Z,75.58
2023-03-19T03:49:30.904Z,75.57
2023-03-19T03:50:33.093Z,75.75
2023-03-19T03:51:35.569Z,75.82
2023-03-19T03:52:38.588Z,76.39
2023-03-19T03:53:40.641Z,77.22
2023-03-19T03:54:42.662Z,76.20
2023-03-19T03:55:44.700Z,76.72
2023-03-19T03:56:46.669Z,76.18
2023-03-19T03:57:49.858Z,76.63
2023-03-19T03:58:51.885Z,76.76
2023-03-19T03:59:54.321Z,77.34
2023-03-19T04:00:56.269Z,77.61
2023-03-19T04:01:58.375Z,77.70
2023-03-19T04:03:01.433Z,77.56
2023-03-19T04:04:03.871Z,77.60
2023-03-19T04:05:05.924Z,78.12
2023-03-19T04:06:08.032Z,77.74
2023-03-19T04:07:10.660Z,77.44
2023-03-19T04:08:13.221Z,77.66
2023-03-19T04:09:15.227Z,77.16
2023-03-19T04:10:17.540Z,77.40
2023-03-19T04:11:19.919Z,77.40
2023-03-19T04:12:22.302Z,77.13
2023-03-19T04:13:25.758Z,77.22
2023-03-19T04:14:28.096Z,77.13
2023-03-19T04:15:30.342Z,76.28
2023-03-19T04:16:32.851Z,76.55
2023-03-19T04:17:34.680Z,76.47
2023-03-19T04:18:37.596Z,75.81
2023-03-19T04:19:39.635Z,75.37
2023-03-19T04:20:41.754Z,75.00
2023-03-19T04:21:45.124Z,74.59
2023-03-19T04:22:47.018Z,74.08
2023-03-19T04:23:49.045Z,74.39
2023-03-19T04:24:51.480Z,73.83
2023-03-19T04:25:53.346Z,74.12
2023-03-19T04:26:55.359Z,73.23
2023-03-19T04:27:58.515Z,73.52
2023-03-19T04:29:00.605Z,73.83
2023-03-19T04:30:03.721Z,73.48
2023-03-19T04:31:07.861Z,73.34
2023-03-19T04:32:09.925Z,73.42
2023-03-19T04:33:12.377Z,73.40
2023-03-19T04:34:14.308Z,73.47
2023-03-19T04:35:16.501Z,73.37
2023-03-19T04:36:19.141Z,73.47
2023-03-19T04:37:21.382Z,73.30
2023-03-19T04:38:26.549Z,73.31
2023-03-19T04:39:28.607Z,73.09
2023-03-19T04:40:30.778Z,72.63
2023-03-19T04:41:32.798Z,73.36
2023-03-19T04:42:34.709Z,73.27
2023-03-19T04:43:37.105Z,73.11
2023-03-19T04:44:39.052Z,72.96
2023-03-19T04:45:41.267Z,73.16
2023-03-19T04:46:45.119Z,72.82
2023-03-19T04:47:47.280Z,72.83
2023-03-19T04:48:49.291Z,72.80
2023-03-19T04:49:51.707Z,72.47
2023-03-19T04:50:57.284Z,73.38
2023-03-19T04:51:59.484Z,73.64
2023-03-19T04:53:02.364Z,72.69
2023-03-19T04:54:05.755Z,73.32
2023-03-19T04:55:08.784Z,73.61
2023-03-19T04:56:11.552Z,73.01
2023-03-19T04:57:13.558Z,73.44
2023-03-19T04:58:15.541Z,73.41
2023-03-19T04:59:17.842Z,72.76
2023-03-19T05:00:20.972Z,73.22
2023-03-19T05:01:23.256Z,72.89
2023-03-19T05:02:25.451Z,72.66
2023-03-19T05:03:27.491Z,72.74
2023-03-19T05:04:29.476Z,73.00
2023-03-19T05:05:31.647Z,73.18
2023-03-19T05:06:33.661Z,72.93
2023-03-19T05:07:35.686Z,72.69
2023-03-19T05:08:37.657Z,72.73
2023-03-19T05:09:40.752Z,72.98
2023-03-19T05:10:42.796Z,73.12
2023-03-19T05:11:44.790Z,72.60
2023-03-19T05:12:46.820Z,73.15
2023-03-19T05:13:48.871Z,73.52
2023-03-19T05:14:50.845Z,73.37
2023-03-19T05:15:55.416Z,73.21
2023-03-19T05:16:57.453Z,73.14
2023-03-19T05:17:59.821Z,73.19
2023-03-19T05:19:01.868Z,73.62
2023-03-19T05:20:05.219Z,73.95
2023-03-19T05:21:11.671Z,73.92
2023-03-19T05:22:13.675Z,73.32
2023-03-19T05:23:16.133Z,72.85
2023-03-19T05:24:17.911Z,73.62
2023-03-19T05:25:19.845Z,73.14
2023-03-19T05:26:21.992Z,72.87
2023-03-19T05:27:24.085Z,73.88
2023-03-19T05:28:26.610Z,73.70
2023-03-19T05:29:28.452Z,73.39
2023-03-19T05:30:31.011Z,74.02
2023-03-19T05:31:33.068Z,74.29
2023-03-19T05:32:35.180Z,73.81
2023-03-19T05:33:37.183Z,73.70
2023-03-19T05:34:39.322Z,73.71
2023-03-19T05:35:41.463Z,73.33
2023-03-19T05:36:43.535Z,73.91
2023-03-19T05:37:46.249Z,73.67
2023-03-19T05:38:48.304Z,74.34
2023-03-19T05:39:51.812Z,73.34
2023-03-19T05:40:53.795Z,74.33
2023-03-19T05:41:56.549Z,74.69
2023-03-19T05:42:58.413Z,75.01
2023-03-19T05:44:00.434Z,75.30
2023-03-19T05:45:02.538Z,75.30
2023-03-19T05:46:04.742Z,74.96
2023-03-19T05:47:07.481Z,74.78
2023-03-19T05:48:09.999Z,74.37
2023-03-19T05:49:12.021Z,74.23
2023-03-19T05:50:14.071Z,73.92
2023-03-19T05:51:16.230Z,74.29
2023-03-19T05:52:18.274Z,73.69
2023-03-19T05:53:21.037Z,73.84
2023-03-19T05:54:23.076Z,73.30
2023-03-19T05:55:25.554Z,73.31
2023-03-19T05:56:27.748Z,73.33
2023-03-19T05:57:29.745Z,73.25
2023-03-19T05:58:32.032Z,73.13
2023-03-19T05:59:34.696Z,73.28
2023-03-19T06:00:37.113Z,72.84
2023-03-19T06:01:38.983Z,73.40
2023-03-19T06:02:41.241Z,74.36
2023-03-19T06:03:43.413Z,74.51
2023-03-19T06:04:46.068Z,74.68
2023-03-19T06:05:51.654Z,74.76
2023-03-19T06:06:53.665Z,75.01
2023-03-19T06:07:55.692Z,75.35
2023-03-19T06:08:57.777Z,75.40
2023-03-19T06:09:59.837Z,74.90
2023-03-19T06:11:01.824Z,75.03
2023-03-19T06:12:04.544Z,74.78
2023-03-19T06:13:06.793Z,74.89
2023-03-19T06:14:08.885Z,74.85
2023-03-19T06:15:11.371Z,74.51
2023-03-19T06:16:13.508Z,74.42
2023-03-19T06:17:15.655Z,73.98
2023-03-19T06:18:18.444Z,73.75
2023-03-19T06:19:20.510Z,73.70
2023-03-19T06:20:22.444Z,74.27
2023-03-19T06:21:29.842Z,73.41
2023-03-19T06:22:31.844Z,73.59
2023-03-19T06:23:33.874Z,73.04
2023-03-19T06:24:35.975Z,73.56
2023-03-19T06:25:38.223Z,73.46
2023-03-19T06:26:40.186Z,73.68
2023-03-19T06:27:42.458Z,73.35
2023-03-19T06:28:44.390Z,73.32
2023-03-19T06:29:47.245Z,74.50
2023-03-19T06:30:49.389Z,74.07
2023-03-19T06:31:51.695Z,73.74
2023-03-19T06:32:53.783Z,73.93
2023-03-19T06:33:55.932Z,73.76
2023-03-19T06:34:57.913Z,72.78
2023-03-19T06:36:00.407Z,73.60
2023-03-19T06:37:02.795Z,73.19
2023-03-19T06:38:04.773Z,74.26
2023-03-19T06:39:06.852Z,74.67
2023-03-19T06:40:09.772Z,74.24
2023-03-19T06:41:12.237Z,73.70
2023-03-19T06:42:14.147Z,74.15
2023-03-19T06:43:16.331Z,74.62
2023-03-19T06:44:18.427Z,74.25
2023-03-19T06:45:20.480Z,73.64
2023-03-19T06:46:22.736Z,73.91
2023-03-19T06:47:24.939Z,73.88
2023-03-19T06:48:26.860Z,73.61
2023-03-19T06:49:28.884Z,73.97
2023-03-19T06:50:30.799Z,74.33
2023-03-19T06:51:32.842Z,73.58
2023-03-19T06:52:34.783Z,73.89
2023-03-19T06:53:36.746Z,74.46
2023-03-19T06:54:38.723Z,74.60
2023-03-19T06:55:41.324Z,74.70
2023-03-19T06:56:43.263Z,74.45
2023-03-19T06:57:49.478Z,74.74
2023-03-19T06:58:51.568Z,74.46
2023-03-19T06:59:53.658Z,74.67
2023-03-19T07:00:55.909Z,74.49
2023-03-19T07:01:57.992Z,74.94
2023-03-19T07:03:00.423Z,75.05
2023-03-19T07:04:02.283Z,75.88
2023-03-19T07:05:04.746Z,75.75
2023-03-19T07:06:07.537Z,75.76
2023-03-19T07:07:09.552Z,77.54
2023-03-19T07:08:12.903Z,78.23
2023-03-19T07:09:15.060Z,78.39
2023-03-19T07:10:20.973Z,77.74
2023-03-19T07:11:22.948Z,76.97
2023-03-19T07:12:28.053Z,76.58
2023-03-19T07:13:30.158Z,76.57
2023-03-19T07:14:32.187Z,76.17
2023-03-19T07:15:34.680Z,76.42
2023-03-19T07:16:36.596Z,76.26
2023-03-19T07:17:38.862Z,76.07
2023-03-19T07:18:40.993Z,75.26
2023-03-19T07:19:42.987Z,75.95
2023-03-19T07:20:45.024Z,75.51
2023-03-19T07:21:47.110Z,75.19
2023-03-19T07:22:51.707Z,76.04
2023-03-19T07:23:53.763Z,75.36
2023-03-19T07:24:56.041Z,75.20
2023-03-19T07:25:58.824Z,75.48
2023-03-19T07:27:00.756Z,75.85
2023-03-19T07:28:02.881Z,75.17
2023-03-19T07:29:05.011Z,75.49
2023-03-19T07:30:07.622Z,76.86
2023-03-19T07:31:09.915Z,76.75
2023-03-19T07:32:12.889Z,76.37
2023-03-19T07:33:15.073Z,76.02
2023-03-19T07:34:17.068Z,75.20
2023-03-19T07:35:19.247Z,75.73
2023-03-19T07:36:22.261Z,75.04
2023-03-19T07:37:24.247Z,75.36
2023-03-19T07:38:26.374Z,76.12
2023-03-19T07:39:28.667Z,75.80
2023-03-19T07:40:30.683Z,75.23
2023-03-19T07:41:32.743Z,75.71
2023-03-19T07:42:36.734Z,75.29
2023-03-19T07:43:38.723Z,73.98
2023-03-19T07:44:40.909Z,75.09
2023-03-19T07:45:43.622Z,74.52
2023-03-19T07:46:45.897Z,75.32
2023-03-19T07:47:50.533Z,74.04
2023-03-19T07:48:52.875Z,73.54
2023-03-19T07:49:54.857Z,73.36
2023-03-19T07:50:56.872Z,73.77
2023-03-19T07:51:58.890Z,73.62
2023-03-19T07:53:00.973Z,72.64
2023-03-19T07:54:03.216Z,71.47
2023-03-19T07:55:06.646Z,71.70
2023-03-19T07:56:08.594Z,70.43
2023-03-19T07:57:10.746Z,69.78
2023-03-19T07:58:12.888Z,69.71
2023-03-19T07:59:14.899Z,70.12
2023-03-19T08:00:17.642Z,69.92
2023-03-19T08:01:20.102Z,69.85
2023-03-19T08:02:23.642Z,69.61
2023-03-19T08:03:25.966Z,69.28
2023-03-19T08:04:28.285Z,68.73
2023-03-19T08:05:30.446Z,67.97
2023-03-19T08:06:33.980Z,68.46
2023-03-19T08:07:36.941Z,68.74
2023-03-19T08:08:39.069Z,68.84
2023-03-19T08:09:41.047Z,68.61
2023-03-19T08:10:43.011Z,69.17
2023-03-19T08:11:45.046Z,69.80
2023-03-19T08:12:47.018Z,68.08
2023-03-19T08:13:49.038Z,67.82
2023-03-19T08:14:51.204Z,68.00
2023-03-19T08:15:53.827Z,67.76
2023-03-19T08:16:56.191Z,67.76
2023-03-19T08:17:58.758Z,67.34
2023-03-19T08:19:00.882Z,67.26
2023-03-19T08:20:03.011Z,66.74
2023-03-19T08:21:05.404Z,67.69
2023-03-19T08:22:07.488Z,67.71
2023-03-19T08:23:09.507Z,67.12
2023-03-19T08:24:11.599Z,67.17
2023-03-19T08:25:13.852Z,67.96
2023-03-19T08:26:15.801Z,67.70
2023-03-19T08:27:17.765Z,67.44
2023-03-19T08:28:20.059Z,67.74
2023-03-19T08:29:22.397Z,66.75
2023-03-19T08:30:24.453Z,65.77
2023-03-19T08:31:27.088Z,64.20
2023-03-19T08:32:28.997Z,63.52
2023-03-19T08:33:31.077Z,62.42
2023-03-19T08:34:33.662Z,62.55
2023-03-19T08:35:35.835Z,62.19
2023-03-19T08:36:37.785Z,62.61
2023-03-19T08:37:39.794Z,61.94
2023-03-19T08:38:42.953Z,62.09
2023-03-19T08:39:45.171Z,63.03
2023-03-19T08:40:47.999Z,63.78
2023-03-19T08:41:50.121Z,63.82
2023-03-19T08:42:52.128Z,64.27
2023-03-19T08:43:54.084Z,63.93
2023-03-19T08:44:56.328Z,64.14
2023-03-19T08:45:58.319Z,63.77
2023-03-19T08:47:00.466Z,61.87
2023-03-19T08:48:02.450Z,62.67
2023-03-19T08:49:04.439Z,62.27
2023-03-19T08:50:07.890Z,63.12
2023-03-19T08:51:10.218Z,64.29
2023-03-19T08:52:12.167Z,61.30
2023-03-19T08:53:14.045Z,61.12
2023-03-19T08:54:16.232Z,61.59
2023-03-19T08:55:18.562Z,59.43
2023-03-19T08:56:21.444Z,58.46
2023-03-19T08:57:23.536Z,59.06
2023-03-19T08:58:26.822Z,57.89
2023-03-19T08:59:31.430Z,58.39
2023-03-19T09:00:34.760Z,59.49
2023-03-19T09:01:37.494Z,59.30
2023-03-19T09:02:40.584Z,60.07
2023-03-19T09:03:44.113Z,60.70
2023-03-19T09:04:46.641Z,61.32
2023-03-19T09:05:48.706Z,61.18
2023-03-19T09:06:53.648Z,61.03
2023-03-19T09:07:55.610Z,60.87
2023-03-19T09:08:57.552Z,60.96
2023-03-19T09:09:59.606Z,59.73
2023-03-19T09:11:01.744Z,60.30
2023-03-19T09:12:03.842Z,60.33
2023-03-19T09:13:06.338Z,59.38
2023-03-19T09:14:08.086Z,61.26
2023-03-19T09:15:10.398Z,59.67
2023-03-19T09:16:12.520Z,61.54
2023-03-19T09:17:15.726Z,60.32
2023-03-19T09:18:20.735Z,60.79
2023-03-19T09:19:24.139Z,59.96
2023-03-19T09:20:26.475Z,57.58
2023-03-19T09:21:28.561Z,58.02
2023-03-19T09:22:30.643Z,57.66
2023-03-19T09:23:32.676Z,57.80
2023-03-19T09:24:34.697Z,58.51
2023-03-19T09:25:36.921Z,58.06
2023-03-19T09:26:39.050Z,57.20
2023-03-19T09:27:41.026Z,57.25
2023-03-19T09:28:43.058Z,57.53
2023-03-19T09:29:45.109Z,57.72
2023-03-19T09:30:48.490Z,57.87
2023-03-19T09:31:50.557Z,57.98
2023-03-19T09:32:52.667Z,55.89
2023-03-19T09:33:54.710Z,55.86
2023-03-19T09:34:57.604Z,56.35
2023-03-19T09:35:59.782Z,57.10
2023-03-19T09:37:02.148Z,54.39
2023-03-19T09:38:04.127Z,55.58
2023-03-19T09:39:07.657Z,55.73
2023-03-19T09:40:22.182Z,56.11
2023-03-19T09:41:45.645Z,56.14
2023-03-19T09:43:07.010Z,56.40
2023-03-19T09:44:13.753Z,56.26
2023-03-19T09:45:18.883Z,55.87
2023-03-19T09:46:27.045Z,54.03
2023-03-19T09:47:39.838Z,54.64
2023-03-19T09:48:49.752Z,53.66
2023-03-19T09:49:55.092Z,54.87
2023-03-19T09:50:59.633Z,54.03
2023-03-19T09:52:14.430Z,52.85
2023-03-19T09:53:40.771Z,53.36
2023-03-19T09:54:42.650Z,53.73
2023-03-19T09:55:49.111Z,53.90
2023-03-19T09:56:51.267Z,56.31
2023-03-19T09:57:55.918Z,56.02
2023-03-19T09:58:58.034Z,54.91
2023-03-19T10:00:00.123Z,54.79
2023-03-19T10:01:03.382Z,55.13
2023-03-19T10:02:36.123Z,53.60
2023-03-19T10:03:48.213Z,53.72
2023-03-19T10:05:05.835Z,53.37
2023-03-19T10:06:20.165Z,54.62
2023-03-19T10:07:38.507Z,54.75
2023-03-19T10:08:56.069Z,54.68
2023-03-19T10:10:14.038Z,54.25
2023-03-19T10:11:23.688Z,53.87
2023-03-19T10:13:00.961Z,53.03
2023-03-19T10:14:31.565Z,54.23
2023-03-19T10:15:36.104Z,53.46
2023-03-19T10:16:42.232Z,53.08
2023-03-19T10:17:56.734Z,52.93
2023-03-19T10:19:03.033Z,52.27
2023-03-19T10:20:15.684Z,52.93
2023-03-19T10:21:42.460Z,52.96
2023-03-19T10:22:57.217Z,53.81
2023-03-19T10:24:24.747Z,54.30
2023-03-19T10:25:29.815Z,52.29
2023-03-19T10:26:35.945Z,53.37
2023-03-19T10:27:38.457Z,52.79
2023-03-19T10:28:44.495Z,51.74
2023-03-19T10:29:46.914Z,52.17
2023-03-19T10:31:21.464Z,52.96
2023-03-19T10:32:42.392Z,51.17
2023-03-19T10:34:10.948Z,52.02
2023-03-19T10:35:21.011Z,52.04
2023-03-19T10:36:28.037Z,52.05
2023-03-19T10:37:30.888Z,50.69
2023-03-19T10:38:33.879Z,50.60
2023-03-19T10:39:38.103Z,49.64
2023-03-19T10:40:49.210Z,49.65
2023-03-19T10:42:18.591Z,50.28
2023-03-19T10:43:25.923Z,49.90
2023-03-19T10:44:46.311Z,50.65
2023-03-19T10:45:49.597Z,50.63
2023-03-19T10:46:51.552Z,48.90
2023-03-19T10:47:56.594Z,49.67
2023-03-19T10:48:58.508Z,49.27
2023-03-19T10:50:00.473Z,49.48
2023-03-19T10:51:06.324Z,48.72
2023-03-19T10:52:25.633Z,48.85
2023-03-19T10:53:38.404Z,47.56
2023-03-19T10:54:44.020Z,48.76
2023-03-19T10:55:55.500Z,48.35
2023-03-19T10:57:00.600Z,46.79
2023-03-19T10:58:04.174Z,47.78
2023-03-19T10:59:20.322Z,48.62
2023-03-19T11:00:29.594Z,48.44
2023-03-19T11:01:40.104Z,47.10
2023-03-19T11:02:48.187Z,47.11
2023-03-19T11:03:57.589Z,46.83
2023-03-19T11:05:14.536Z,47.79
2023-03-19T11:06:25.650Z,47.79
2023-03-19T11:07:28.515Z,47.43
2023-03-19T11:08:35.729Z,47.22
2023-03-19T11:09:41.041Z,46.27
2023-03-19T11:10:48.720Z,46.48
2023-03-19T11:11:57.022Z,46.50
2023-03-19T11:13:29.037Z,45.87
2023-03-19T11:14:44.807Z,45.83
2023-03-19T11:15:48.273Z,45.65
2023-03-19T11:16:56.665Z,42.86
2023-03-19T11:18:01.455Z,45.04
2023-03-19T11:19:03.507Z,44.89
2023-03-19T11:20:38.130Z,44.74
2023-03-19T11:21:40.155Z,45.15
2023-03-19T11:22:43.122Z,44.62
2023-03-19T11:23:45.177Z,46.14
2023-03-19T11:25:14.645Z,45.89
2023-03-19T11:26:21.190Z,45.12
2023-03-19T11:27:32.750Z,44.86
2023-03-19T11:28:37.962Z,44.06
2023-03-19T11:29:43.079Z,43.80
2023-03-19T11:30:51.144Z,45.83
2023-03-19T11:32:23.799Z,44.58
2023-03-19T11:33:25.794Z,44.96
2023-03-19T11:34:41.053Z,44.47
2023-03-19T11:35:58.640Z,43.77
2023-03-19T11:37:06.659Z,42.96
2023-03-19T11:38:16.443Z,43.46
2023-03-19T11:39:18.166Z,44.17
2023-03-19T11:40:43.230Z,43.64
2023-03-19T11:41:48.191Z,43.38
2023-03-19T11:43:02.162Z,42.79
2023-03-19T11:44:23.328Z,42.41
2023-03-19T11:45:58.722Z,43.21
2023-03-19T11:47:27.448Z,43.01
2023-03-19T11:49:09.104Z,43.17
2023-03-19T11:50:28.082Z,43.31
2023-03-19T11:51:38.897Z,42.19
2023-03-19T11:53:02.372Z,41.20
2023-03-19T11:54:06.975Z,41.59
2023-03-19T11:55:08.776Z,42.09
2023-03-19T11:56:30.417Z,43.27
2023-03-19T11:57:32.996Z,42.47
2023-03-19T11:58:40.727Z,42.80
2023-03-19T11:59:51.711Z,41.66
2023-03-19T12:00:54.282Z,40.54
2023-03-19T12:02:09.606Z,42.65
2023-03-19T12:03:26.682Z,41.20
2023-03-19T12:04:41.318Z,41.23
2023-03-19T12:05:56.403Z,41.32
2023-03-19T12:07:00.825Z,41.98
2023-03-19T12:08:05.932Z,41.49
2023-03-19T12:09:15.585Z,41.50
2023-03-19T12:10:36.131Z,40.54
2023-03-19T12:11:49.962Z,41.58
2023-03-19T12:13:04.529Z,41.90
2023-03-19T12:14:06.900Z,42.44
2023-03-19T12:15:35.327Z,42.17
2023-03-19T12:16:56.248Z,42.39
2023-03-19T12:17:59.743Z,42.22
2023-03-19T12:19:17.157Z,41.89
2023-03-19T12:20:38.568Z,41.42
2023-03-19T12:21:58.874Z,41.60
2023-03-19T12:23:12.614Z,41.56
2023-03-19T12:24:17.210Z,41.15
2023-03-19T12:25:42.379Z,41.74
2023-03-19T12:26:50.640Z,40.88
2023-03-19T12:27:59.924Z,42.01
2023-03-19T12:29:15.263Z,41.01
2023-03-19T12:30:35.966Z,40.95
2023-03-19T12:31:43.579Z,40.87
2023-03-19T12:32:51.906Z,40.09
2023-03-19T12:34:02.188Z,40.86
2023-03-19T12:35:30.346Z,40.98
2023-03-19T12:36:37.116Z,40.19
2023-03-19T12:37:42.947Z,41.76
2023-03-19T12:38:48.882Z,41.51
2023-03-19T12:39:56.104Z,41.38
2023-03-19T12:41:20.838Z,42.12
2023-03-19T12:42:25.652Z,41.85
2023-03-19T12:43:33.712Z,41.31
2023-03-19T12:44:41.051Z,42.28
2023-03-19T12:45:44.752Z,40.61
2023-03-19T12:46:52.207Z,41.64
2023-03-19T12:47:57.425Z,42.01
2023-03-19T12:49:05.320Z,41.62
2023-03-19T12:50:09.579Z,41.43
2023-03-19T12:51:13.888Z,41.96
2023-03-19T12:52:22.689Z,42.16
2023-03-19T12:53:50.980Z,41.67
2023-03-19T12:55:00.361Z,42.07
2023-03-19T12:56:09.870Z,43.61
2023-03-19T12:57:18.686Z,43.45
2023-03-19T12:58:46.917Z,42.25
2023-03-19T13:00:07.580Z,43.48
2023-03-19T13:01:17.069Z,43.00
2023-03-19T13:02:19.008Z,43.74
2023-03-19T13:03:28.297Z,44.70
2023-03-19T13:04:40.252Z,44.25
2023-03-19T13:05:45.094Z,44.25
2023-03-19T13:06:56.446Z,44.81
2023-03-19T13:08:13.657Z,44.15
2023-03-19T13:09:34.090Z,45.06
2023-03-19T13:10:36.273Z,45.08
2023-03-19T13:12:05.571Z,45.73
2023-03-19T13:13:18.972Z,44.41
2023-03-19T13:14:20.951Z,44.68
2023-03-19T13:15:28.711Z,44.30
2023-03-19T13:16:50.688Z,44.94
2023-03-19T13:18:01.236Z,45.07
2023-03-19T13:19:23.392Z,45.32
2023-03-19T13:20:25.314Z,45.95
2023-03-19T13:21:30.143Z,45.64
2023-03-19T13:22:34.980Z,46.03
2023-03-19T13:23:40.035Z,45.36
2023-03-19T13:24:44.587Z,46.15
2023-03-19T13:25:50.920Z,46.39
2023-03-19T13:26:54.172Z,46.38
2023-03-19T13:27:56.422Z,46.50
2023-03-19T13:29:03.113Z,46.32
2023-03-19T13:30:07.886Z,46.54
2023-03-19T13:31:20.066Z,46.46
2023-03-19T13:32:27.525Z,46.46
2023-03-19T13:33:30.115Z,47.06
2023-03-19T13:34:33.410Z,46.84
2023-03-19T13:35:41.006Z,45.63
2023-03-19T13:36:44.116Z,46.21
2023-03-19T13:37:56.335Z,46.02
2023-03-19T13:39:00.965Z,46.18
2023-03-19T13:40:05.202Z,46.35
2023-03-19T13:41:27.898Z,45.35
2023-03-19T13:42:42.809Z,45.97
2023-03-19T13:43:52.856Z,45.79
2023-03-19T13:44:58.694Z,44.62
2023-03-19T13:46:06.774Z,45.53
2023-03-19T13:47:27.049Z,44.20
2023-03-19T13:48:28.993Z,44.50
2023-03-19T13:49:36.743Z,44.22
2023-03-19T13:51:04.847Z,44.43
2023-03-19T13:52:13.031Z,45.04
2023-03-19T13:53:22.506Z,45.74
2023-03-19T13:54:35.103Z,46.32
2023-03-19T13:55:46.702Z,46.01
2023-03-19T13:57:10.314Z,45.62
2023-03-19T13:58:37.810Z,46.19
2023-03-19T13:59:44.338Z,46.93
2023-03-19T14:00:46.329Z,46.54